TFM - Tactical Decision Aid
ID: Runway Winds: CIG/VIS Threshold:

KBWI - Baltimore-Washington, MD, US

Updated at: 2245 UTC 23 Apr 2019
Latest TAF at: 2031 UTC 23 Apr 2019

TAF Board

Time2154Z 23/23Z 24/00Z 24/01Z 24/02Z 24/03Z 24/04Z 24/05Z 24/06Z 24/07Z 24/08Z 24/09Z 24/10Z 24/11Z>>
Type OBS PRVL PRVL PRVL PRVL PRVL PRVL PRVL PRVL PRVL PRVL PRVL PRVL PRVL
VIS 10 >6 >6 >6 >6 >6 >6 >6 >6 >6 >6 >6 >6 >6
CIG 250 -- -- -- -- -- 100 100 100 100 100 100 100 --
Cover BKN FEW FEW FEW FEW FEW BKN BKN BKN BKN BKN BKN BKN SCT
FltCat VFR VFR VFR VFR VFR VFR VFR VFR VFR VFR VFR VFR VFR VFR
WX -- -- -- -- -- -- -- -- -- -- -- -- -- --
WDir 200 190 190 190 190 190 220 220 220 260 260 260 260 300
WSpd 8 8 8 8 8 8 6 6 6 6 6 6 6 8
WGst -- -- -- -- -- -- -- -- -- -- -- -- -- --

TDA Impact Legend

  None Marginal Slight Moderate High
Visibility (sm) >5 3≤X≤5 1≤X<3 0.5≤X<1 <0.5
Ceiling (100 ft) >30 10≤X≤30 4≤X<10 2≤X<4 <2
Wind Speed (kt) <15 15≤X<25 25≤X<30 ≥30
Wind Gust (kt) <15 15≤X<25 25≤X<35 ≥35
Weather No Wx Reported VCTS -TS,-FZRA TS,FZRA +TS,+FZRA
TAF
KBWI 232031Z 2321/2424 19008KT P6SM FEW150
  FM240400 22006KT P6SM BKN100
  FM240700 26006KT P6SM BKN100
  FM241100 30008KT P6SM SCT250
  FM241600 30010G20KT P6SM SCT200


METAR
KBWI 232154Z 20008KT 170V240 10SM FEW120 SCT160 BKN250 28/08 A2983 RMK AO2 SLP099 T02780083
KBWI 232054Z 16009KT 10SM FEW120 SCT160 SCT250 28/08 A2983 RMK AO2 SLP099 T02780083 58033
KBWI 231954Z 25007KT 190V270 10SM FEW120 SCT160 SCT250 28/08 A2986 RMK AO2 SLP111 T02780078

Radar Display
Forecast Discussion